createdAt,value
2023-01-27T00:01:17.719Z,31.60
2023-01-27T00:03:46.143Z,31.77
2023-01-27T00:06:15.718Z,31.57
2023-01-27T00:08:43.898Z,27.00
2023-01-27T00:11:29.607Z,29.23
2023-01-27T00:13:57.817Z,25.67
2023-01-27T00:16:26.003Z,27.73
2023-01-27T00:18:54.119Z,27.07
2023-01-27T00:21:41.043Z,27.40
2023-01-27T00:24:30.795Z,26.90
2023-01-27T00:26:59.738Z,26.83
2023-01-27T00:29:27.966Z,25.97
2023-01-27T00:32:13.617Z,24.10
2023-01-27T00:34:41.911Z,27.80
2023-01-27T00:37:14.364Z,26.47
2023-01-27T00:39:43.112Z,25.10
2023-01-27T00:42:12.033Z,23.70
2023-01-27T00:45:00.606Z,26.67
2023-01-27T00:47:28.844Z,24.70
2023-01-27T00:49:57.030Z,26.27
2023-01-27T00:52:26.703Z,26.73
2023-01-27T00:54:54.903Z,26.30
2023-01-27T00:57:23.081Z,24.03
2023-01-27T00:59:51.450Z,24.17
2023-01-27T01:02:19.754Z,26.37
2023-01-27T01:04:47.960Z,24.33
2023-01-27T01:07:16.137Z,27.23
2023-01-27T01:09:45.730Z,25.63
2023-01-27T01:12:13.980Z,26.00
2023-01-27T01:14:42.191Z,27.20
2023-01-27T01:17:10.451Z,24.93
2023-01-27T01:19:38.787Z,25.67
2023-01-27T01:22:06.969Z,23.40
2023-01-27T01:24:35.954Z,23.00
2023-01-27T01:27:05.607Z,24.83
2023-01-27T01:29:33.831Z,24.20
2023-01-27T01:32:02.075Z,23.07
2023-01-27T01:34:33.069Z,25.53
2023-01-27T01:37:01.308Z,22.67
2023-01-27T01:39:29.873Z,22.87
2023-01-27T01:41:58.379Z,23.47
2023-01-27T01:44:29.855Z,21.70
2023-01-27T01:47:01.221Z,23.60
2023-01-27T01:49:36.101Z,23.13
2023-01-27T01:52:08.222Z,24.30
2023-01-27T01:54:39.787Z,21.63
2023-01-27T01:57:14.308Z,23.77
2023-01-27T01:59:48.507Z,25.37
2023-01-27T02:02:20.706Z,23.50
2023-01-27T02:04:54.850Z,23.70
2023-01-27T02:07:27.850Z,21.63
2023-01-27T02:09:57.712Z,25.87
2023-01-27T02:12:26.003Z,23.73
2023-01-27T02:14:58.295Z,24.47
2023-01-27T02:17:26.538Z,23.03
2023-01-27T02:20:03.725Z,24.37
2023-01-27T02:22:37.740Z,22.97
2023-01-27T02:25:13.106Z,22.57
2023-01-27T02:27:43.563Z,24.00
2023-01-27T02:30:12.568Z,23.97
2023-01-27T02:32:41.614Z,23.37
2023-01-27T02:35:12.890Z,23.10
2023-01-27T02:37:41.839Z,22.37
2023-01-27T02:40:11.779Z,24.33
2023-01-27T02:42:40.201Z,21.53
2023-01-27T02:45:11.671Z,23.63
2023-01-27T02:47:40.309Z,24.00
2023-01-27T02:50:09.595Z,21.40
2023-01-27T02:52:37.807Z,21.87
2023-01-27T02:55:07.460Z,20.03
2023-01-27T02:57:35.721Z,25.30
2023-01-27T03:00:35.255Z,23.70
2023-01-27T03:03:03.533Z,22.47
2023-01-27T03:05:31.803Z,24.43
2023-01-27T03:08:00.137Z,23.83
2023-01-27T03:10:29.226Z,22.43
2023-01-27T03:12:59.799Z,24.03
2023-01-27T03:15:45.428Z,24.53
2023-01-27T03:18:16.603Z,22.93
2023-01-27T03:20:47.428Z,22.57
2023-01-27T03:23:18.017Z,23.23
2023-01-27T03:25:50.639Z,22.40
2023-01-27T03:28:19.077Z,23.30
2023-01-27T03:31:00.696Z,21.37
2023-01-27T03:33:43.069Z,22.37
2023-01-27T03:37:04.149Z,22.03
2023-01-27T03:39:49.987Z,22.13
2023-01-27T03:42:36.118Z,22.07
2023-01-27T03:45:21.741Z,23.87
2023-01-27T03:47:50.136Z,22.13
2023-01-27T03:50:37.649Z,22.97
2023-01-27T03:53:07.144Z,22.73
2023-01-27T03:55:38.525Z,24.03
2023-01-27T03:58:19.620Z,25.30
2023-01-27T04:00:50.512Z,25.30
2023-01-27T04:03:36.407Z,26.13
2023-01-27T04:06:25.261Z,24.80
2023-01-27T04:08:53.682Z,26.73
2023-01-27T04:11:39.680Z,24.30
2023-01-27T04:14:10.043Z,24.27
2023-01-27T04:16:39.496Z,26.37
2023-01-27T04:19:09.466Z,24.47
2023-01-27T04:21:39.655Z,24.93
2023-01-27T04:24:17.330Z,25.63
2023-01-27T04:26:46.343Z,25.17
2023-01-27T04:29:14.960Z,26.93
2023-01-27T04:31:43.830Z,26.73
2023-01-27T04:34:13.139Z,26.40
2023-01-27T04:36:43.217Z,28.03
2023-01-27T04:39:11.815Z,29.57
2023-01-27T04:41:40.551Z,28.03
2023-01-27T04:44:10.406Z,32.20
2023-01-27T04:46:39.177Z,29.90
2023-01-27T04:49:08.612Z,31.80
2023-01-27T04:51:37.032Z,30.00
2023-01-27T04:54:07.415Z,31.83
2023-01-27T04:56:38.025Z,31.73
2023-01-27T04:59:11.218Z,30.23
2023-01-27T05:01:39.610Z,32.93
2023-01-27T05:04:07.966Z,32.63
2023-01-27T05:06:36.334Z,32.43
2023-01-27T05:09:06.739Z,36.03
2023-01-27T05:11:35.161Z,34.47
2023-01-27T05:14:03.358Z,35.63
2023-01-27T05:16:31.617Z,35.37
2023-01-27T05:19:00.128Z,34.33
2023-01-27T05:21:29.162Z,34.40
2023-01-27T05:23:57.708Z,32.80
2023-01-27T05:26:28.840Z,31.43
2023-01-27T05:28:58.713Z,29.83
2023-01-27T05:31:29.222Z,32.90
2023-01-27T05:33:59.311Z,31.07
2023-01-27T05:36:27.881Z,31.20
2023-01-27T05:38:57.295Z,30.50
2023-01-27T05:41:26.980Z,31.33
2023-01-27T05:43:57.027Z,30.53
2023-01-27T05:46:27.534Z,28.33
2023-01-27T05:48:57.841Z,28.10
2023-01-27T05:51:29.817Z,29.13
2023-01-27T05:53:58.137Z,30.60
2023-01-27T05:56:27.893Z,28.10
2023-01-27T05:58:57.183Z,26.03
2023-01-27T06:01:28.482Z,27.00
2023-01-27T06:03:57.549Z,26.20
2023-01-27T06:06:28.503Z,27.00
2023-01-27T06:08:56.667Z,27.27
2023-01-27T06:11:25.615Z,30.10
2023-01-27T06:13:55.565Z,27.03
2023-01-27T06:16:24.537Z,26.80
2023-01-27T06:18:53.360Z,26.23
2023-01-27T06:21:21.876Z,25.37
2023-01-27T06:23:50.539Z,25.60
2023-01-27T06:26:20.775Z,28.17
2023-01-27T06:28:49.630Z,29.83
2023-01-27T06:31:22.286Z,25.83
2023-01-27T06:33:51.129Z,24.23
2023-01-27T06:36:21.441Z,24.07
2023-01-27T06:38:50.563Z,24.83
2023-01-27T06:41:19.437Z,29.83
2023-01-27T06:43:47.805Z,28.97
2023-01-27T06:46:16.165Z,31.97
2023-01-27T06:48:45.968Z,30.00
2023-01-27T06:51:14.624Z,28.83
2023-01-27T06:53:43.131Z,27.40
2023-01-27T06:56:11.368Z,23.57
2023-01-27T06:58:39.688Z,24.90
2023-01-27T07:01:08.253Z,25.20
2023-01-27T07:03:37.105Z,26.73
2023-01-27T07:06:07.310Z,27.03
2023-01-27T07:08:35.483Z,29.63
2023-01-27T07:11:04.809Z,25.63
2023-01-27T07:13:33.122Z,25.73
2023-01-27T07:16:01.468Z,25.53
2023-01-27T07:18:29.737Z,23.37
2023-01-27T07:20:58.174Z,28.23
2023-01-27T07:23:27.773Z,25.17
2023-01-27T07:25:55.961Z,25.03
2023-01-27T07:28:24.241Z,25.07
2023-01-27T07:30:52.601Z,22.00
2023-01-27T07:33:20.844Z,25.47
2023-01-27T07:35:50.591Z,20.83
2023-01-27T07:38:18.894Z,18.87
2023-01-27T07:40:48.720Z,19.97
2023-01-27T07:43:17.068Z,18.07
2023-01-27T07:45:49.139Z,20.00
2023-01-27T07:48:17.577Z,20.77
2023-01-27T07:50:46.136Z,19.00
2023-01-27T07:53:14.489Z,22.27
2023-01-27T07:55:42.809Z,18.47
2023-01-27T07:58:12.600Z,20.97
2023-01-27T08:00:41.166Z,21.40
2023-01-27T08:03:21.833Z,19.50
2023-01-27T08:05:50.274Z,21.23
2023-01-27T08:08:19.036Z,19.03
2023-01-27T08:10:49.422Z,21.17
2023-01-27T08:13:19.319Z,21.20
2023-01-27T08:15:47.806Z,21.37
2023-01-27T08:18:15.988Z,16.77
2023-01-27T08:20:45.989Z,17.60
2023-01-27T08:23:14.532Z,17.17
2023-01-27T08:25:42.775Z,15.97
2023-01-27T08:28:11.068Z,21.30
2023-01-27T08:30:40.717Z,20.03
2023-01-27T08:33:09.300Z,21.40
2023-01-27T08:35:39.303Z,21.07
2023-01-27T08:38:07.545Z,20.83
2023-01-27T08:40:35.905Z,21.70
2023-01-27T08:43:05.574Z,22.07
2023-01-27T08:45:34.189Z,21.27
2023-01-27T08:48:05.721Z,19.40
2023-01-27T08:50:34.370Z,17.70
2023-01-27T08:53:04.443Z,18.17
2023-01-27T08:55:34.443Z,20.40
2023-01-27T08:58:03.422Z,17.30
2023-01-27T09:00:31.749Z,15.07
2023-01-27T09:03:00.473Z,18.43
2023-01-27T09:05:30.206Z,18.00
2023-01-27T09:07:58.650Z,14.60
2023-01-27T09:10:27.182Z,14.47
2023-01-27T09:12:55.498Z,12.53
2023-01-27T09:15:23.826Z,12.37
2023-01-27T09:17:52.332Z,12.27
2023-01-27T09:20:20.950Z,14.10
2023-01-27T09:22:50.672Z,16.33
2023-01-27T09:25:19.285Z,14.03
2023-01-27T09:27:47.827Z,17.07
2023-01-27T09:30:17.611Z,14.37
2023-01-27T09:32:46.371Z,12.07
2023-01-27T09:35:15.373Z,13.07
2023-01-27T09:37:47.927Z,13.53
2023-01-27T09:40:29.547Z,14.87
2023-01-27T09:43:16.732Z,13.93
2023-01-27T09:46:02.018Z,12.70
2023-01-27T09:48:53.585Z,13.17
2023-01-27T09:51:29.196Z,12.07
2023-01-27T09:54:12.138Z,13.13
2023-01-27T09:56:50.741Z,13.20
2023-01-27T09:59:42.349Z,12.90
2023-01-27T10:02:24.990Z,11.90
2023-01-27T10:05:31.720Z,11.47
2023-01-27T10:08:27.761Z,13.80
2023-01-27T10:11:07.669Z,11.70
2023-01-27T10:13:45.043Z,12.67
2023-01-27T10:16:30.939Z,12.37
2023-01-27T10:19:11.547Z,12.43
2023-01-27T10:21:49.696Z,11.83
2023-01-27T10:24:31.927Z,14.47
2023-01-27T10:27:08.689Z,13.27
2023-01-27T10:29:44.681Z,12.40
2023-01-27T10:32:21.619Z,13.17
2023-01-27T10:34:58.861Z,12.30
2023-01-27T10:37:34.459Z,14.10
2023-01-27T10:40:07.665Z,12.47
2023-01-27T10:42:42.290Z,13.63
2023-01-27T10:45:31.659Z,12.53
2023-01-27T10:48:22.434Z,13.97
2023-01-27T10:50:57.891Z,13.33
2023-01-27T10:53:32.047Z,13.50
2023-01-27T10:56:05.029Z,12.97
2023-01-27T10:58:43.609Z,14.47
2023-01-27T11:01:21.484Z,13.13
2023-01-27T11:03:55.687Z,12.77
2023-01-27T11:06:25.862Z,13.33
2023-01-27T11:09:00.335Z,14.60
2023-01-27T11:11:49.319Z,11.90
2023-01-27T11:14:23.876Z,12.40
2023-01-27T11:16:57.317Z,11.50
2023-01-27T11:19:35.306Z,11.20
2023-01-27T11:22:08.724Z,12.27
2023-01-27T11:24:46.393Z,15.80
2023-01-27T11:27:26.623Z,13.83
2023-01-27T11:29:59.453Z,12.50
2023-01-27T11:32:38.067Z,13.63
2023-01-27T11:35:10.251Z,13.20
2023-01-27T11:37:41.205Z,14.37
2023-01-27T11:40:18.822Z,11.43
2023-01-27T11:42:48.205Z,12.67
2023-01-27T11:45:18.364Z,11.53
2023-01-27T11:47:51.155Z,13.43
2023-01-27T11:50:21.930Z,12.67
2023-01-27T11:53:01.993Z,14.07
2023-01-27T11:55:37.467Z,12.13
2023-01-27T11:58:14.819Z,12.53
2023-01-27T12:00:47.570Z,11.03
2023-01-27T12:03:22.128Z,11.50
2023-01-27T12:05:55.578Z,11.07
2023-01-27T12:08:45.057Z,11.17
2023-01-27T12:11:25.750Z,11.27
2023-01-27T12:13:56.960Z,11.57
2023-01-27T12:16:34.811Z,14.03
2023-01-27T12:19:14.133Z,13.87
2023-01-27T12:21:51.023Z,12.10
2023-01-27T12:24:25.978Z,12.83
2023-01-27T12:26:55.912Z,11.70
2023-01-27T12:29:29.209Z,11.20
2023-01-27T12:32:00.890Z,11.43
2023-01-27T12:34:34.683Z,13.63
2023-01-27T12:37:05.486Z,13.07
2023-01-27T12:39:42.694Z,14.37
2023-01-27T12:42:39.065Z,12.50
2023-01-27T12:45:24.621Z,10.97
2023-01-27T12:47:59.066Z,11.50
2023-01-27T12:50:30.812Z,12.47
2023-01-27T12:53:10.190Z,11.67
2023-01-27T12:55:42.374Z,14.53
2023-01-27T12:58:35.332Z,10.40
2023-01-27T13:01:06.378Z,10.43
2023-01-27T13:03:41.723Z,11.00
2023-01-27T13:06:16.477Z,12.63
2023-01-27T13:08:45.529Z,10.40
2023-01-27T13:11:14.097Z,11.77
2023-01-27T13:13:50.335Z,14.33
2023-01-27T13:16:27.437Z,14.50
2023-01-27T13:18:57.599Z,14.80
2023-01-27T13:21:30.950Z,16.13
2023-01-27T13:24:01.272Z,14.03
2023-01-27T13:26:32.414Z,14.57
2023-01-27T13:29:11.396Z,14.17
2023-01-27T13:31:45.408Z,15.07
2023-01-27T13:34:22.350Z,10.77
2023-01-27T13:36:56.310Z,11.50
2023-01-27T13:39:44.088Z,12.47
2023-01-27T13:42:19.570Z,12.10
2023-01-27T13:44:52.229Z,12.60
2023-01-27T13:47:24.453Z,11.03
2023-01-27T13:49:58.518Z,10.03
2023-01-27T13:52:28.435Z,13.63
2023-01-27T13:54:56.837Z,11.10
2023-01-27T13:57:49.423Z,11.83
2023-01-27T14:00:23.993Z,13.73
2023-01-27T14:03:25.498Z,11.27
2023-01-27T14:06:06.521Z,10.67
2023-01-27T14:09:16.800Z,12.57
2023-01-27T14:11:52.984Z,10.87
2023-01-27T14:14:57.429Z,9.97
2023-01-27T14:17:39.079Z,10.73
2023-01-27T14:20:30.346Z,13.50
2023-01-27T14:23:10.292Z,8.33
2023-01-27T14:25:45.525Z,9.47
2023-01-27T14:28:24.639Z,12.90
2023-01-27T14:30:58.591Z,9.37
2023-01-27T14:33:44.487Z,10.60
2023-01-27T14:36:18.434Z,12.60
2023-01-27T14:38:56.171Z,12.73
2023-01-27T14:41:33.080Z,10.07
2023-01-27T14:44:14.259Z,16.60
2023-01-27T14:46:53.634Z,16.33
2023-01-27T14:49:33.115Z,14.83
2023-01-27T14:52:09.570Z,15.40
2023-01-27T14:54:58.657Z,26.57
2023-01-27T14:57:38.961Z,13.27
2023-01-27T15:00:24.658Z,16.40
2023-01-27T15:03:07.945Z,14.97
2023-01-27T15:05:43.003Z,13.60
2023-01-27T15:08:19.718Z,11.03
2023-01-27T15:10:55.212Z,9.83
2023-01-27T15:13:55.069Z,8.37
2023-01-27T15:16:45.520Z,9.63
2023-01-27T15:19:48.851Z,11.63
2023-01-27T15:22:59.146Z,9.40
2023-01-27T15:25:33.572Z,9.67
2023-01-27T15:28:02.964Z,9.90
2023-01-27T15:30:34.533Z,9.83
2023-01-27T15:33:04.187Z,8.17
2023-01-27T15:35:38.496Z,8.23
2023-01-27T15:38:20.035Z,10.23
2023-01-27T15:41:00.443Z,10.03
2023-01-27T15:43:33.358Z,9.80
2023-01-27T15:46:30.466Z,9.17
2023-01-27T15:49:02.133Z,9.13
2023-01-27T15:51:32.455Z,9.47
2023-01-27T15:54:01.360Z,8.60
2023-01-27T15:56:45.588Z,8.73
2023-01-27T15:59:18.733Z,8.87
2023-01-27T16:01:49.077Z,9.97
2023-01-27T16:04:24.313Z,10.77
2023-01-27T16:07:02.216Z,11.13
2023-01-27T16:09:39.685Z,11.50
2023-01-27T16:12:39.962Z,14.30
2023-01-27T16:15:21.710Z,8.83
2023-01-27T16:18:18.368Z,12.10
2023-01-27T16:20:54.988Z,14.73
2023-01-27T16:23:36.215Z,12.77
2023-01-27T16:26:17.011Z,10.43
2023-01-27T16:28:48.215Z,12.30
2023-01-27T16:31:20.390Z,12.90
2023-01-27T16:33:54.192Z,11.03
2023-01-27T16:36:28.037Z,10.57
2023-01-27T16:38:59.363Z,9.93
2023-01-27T16:41:30.926Z,11.93
2023-01-27T16:44:03.619Z,11.33
2023-01-27T16:46:35.883Z,10.80
2023-01-27T16:49:12.922Z,15.77
2023-01-27T16:51:43.273Z,11.97
2023-01-27T16:54:21.386Z,11.73
2023-01-27T16:56:52.449Z,10.97
2023-01-27T16:59:26.741Z,12.50
2023-01-27T17:01:56.680Z,15.43
2023-01-27T17:04:27.935Z,14.57
2023-01-27T17:07:04.155Z,13.80
2023-01-27T17:09:35.442Z,10.97
2023-01-27T17:12:04.058Z,14.27
2023-01-27T17:14:34.999Z,23.37
2023-01-27T17:17:04.897Z,11.97
2023-01-27T17:19:35.514Z,14.37
2023-01-27T17:22:10.256Z,14.53
2023-01-27T17:24:44.704Z,11.93
2023-01-27T17:27:24.083Z,16.23
2023-01-27T17:29:55.860Z,16.43
2023-01-27T17:32:28.551Z,15.37
2023-01-27T17:35:00.173Z,12.57
2023-01-27T17:37:31.578Z,14.77
2023-01-27T17:40:02.018Z,17.43
2023-01-27T17:42:32.385Z,19.97
2023-01-27T17:45:23.478Z,14.67
2023-01-27T17:47:52.434Z,16.80
2023-01-27T17:50:24.497Z,21.43
2023-01-27T17:52:56.522Z,13.93
2023-01-27T17:55:28.707Z,13.97
2023-01-27T17:58:05.364Z,14.40
2023-01-27T18:00:38.823Z,14.90
2023-01-27T18:03:15.126Z,10.80
2023-01-27T18:05:46.866Z,9.53
2023-01-27T18:08:19.349Z,13.50
2023-01-27T18:10:48.784Z,12.40
2023-01-27T18:13:39.016Z,17.23
2023-01-27T18:16:15.935Z,12.83
2023-01-27T18:18:44.503Z,17.53
2023-01-27T18:21:19.685Z,11.97
2023-01-27T18:23:51.576Z,11.27
2023-01-27T18:26:25.563Z,9.73
2023-01-27T18:28:58.729Z,10.70
2023-01-27T18:31:31.302Z,12.33
2023-01-27T18:34:02.179Z,10.77
2023-01-27T18:36:34.655Z,12.57
2023-01-27T18:39:25.795Z,11.33
2023-01-27T18:41:54.799Z,13.47
2023-01-27T18:44:27.412Z,11.77
2023-01-27T18:47:00.434Z,10.83
2023-01-27T18:49:28.843Z,9.47
2023-01-27T18:51:57.227Z,11.13
2023-01-27T18:54:27.182Z,9.23
2023-01-27T18:56:55.543Z,9.17
2023-01-27T18:59:24.241Z,12.27
2023-01-27T19:01:52.603Z,10.67
2023-01-27T19:04:20.888Z,12.37
2023-01-27T19:06:50.389Z,13.43
2023-01-27T19:09:18.872Z,12.20
2023-01-27T19:11:50.780Z,17.33
2023-01-27T19:14:19.279Z,14.37
2023-01-27T19:16:47.547Z,11.83
2023-01-27T19:19:15.822Z,12.17
2023-01-27T19:21:44.163Z,13.50
2023-01-27T19:24:12.676Z,11.33
2023-01-27T19:26:41.260Z,12.30
2023-01-27T19:29:12.431Z,11.70
2023-01-27T19:31:40.777Z,12.93
2023-01-27T19:34:12.174Z,12.80
2023-01-27T19:36:43.676Z,10.97
2023-01-27T19:39:15.564Z,11.37
2023-01-27T19:41:45.706Z,9.93
2023-01-27T19:44:15.762Z,15.13
2023-01-27T19:46:44.510Z,15.20
2023-01-27T19:49:17.316Z,12.30
2023-01-27T19:51:46.032Z,11.10
2023-01-27T19:54:14.303Z,13.20
2023-01-27T19:56:42.909Z,13.80
2023-01-27T19:59:13.537Z,12.83
2023-01-27T20:01:44.190Z,13.63
2023-01-27T20:04:12.552Z,14.03
2023-01-27T20:06:41.022Z,12.33
2023-01-27T20:09:10.681Z,13.13
2023-01-27T20:11:40.571Z,15.63
2023-01-27T20:14:13.769Z,14.70
2023-01-27T20:16:44.175Z,13.73
2023-01-27T20:19:15.048Z,13.77
2023-01-27T20:21:44.065Z,14.13
2023-01-27T20:24:15.392Z,13.00
2023-01-27T20:26:43.885Z,12.43
2023-01-27T20:29:12.483Z,11.10
2023-01-27T20:31:41.145Z,11.73
2023-01-27T20:34:11.082Z,10.87
2023-01-27T20:36:39.718Z,10.47
2023-01-27T20:39:08.371Z,9.17
2023-01-27T20:41:37.082Z,11.33
2023-01-27T20:44:05.780Z,9.57
2023-01-27T20:46:34.821Z,10.00
2023-01-27T20:49:03.268Z,10.53
2023-01-27T20:51:33.497Z,10.17
2023-01-27T20:54:02.102Z,10.30
2023-01-27T20:56:30.427Z,11.20
2023-01-27T20:58:58.890Z,11.33
2023-01-27T21:01:27.606Z,10.37
2023-01-27T21:03:56.194Z,13.47
2023-01-27T21:06:24.670Z,11.60
2023-01-27T21:08:54.458Z,10.40
2023-01-27T21:11:23.192Z,12.20
2023-01-27T21:13:53.015Z,10.60
2023-01-27T21:16:21.447Z,11.67
2023-01-27T21:18:50.115Z,10.97
2023-01-27T21:21:27.328Z,11.73
2023-01-27T21:24:00.359Z,9.07
2023-01-27T21:26:29.186Z,9.60
2023-01-27T21:28:58.212Z,19.23
2023-01-27T21:31:30.270Z,10.77
2023-01-27T21:34:00.836Z,10.73
2023-01-27T21:36:29.824Z,9.53
2023-01-27T21:39:01.798Z,11.73
2023-01-27T21:41:52.767Z,11.50
2023-01-27T21:44:41.824Z,10.73
2023-01-27T21:47:12.091Z,11.23
2023-01-27T21:49:55.719Z,14.00
2023-01-27T21:52:25.104Z,11.70
2023-01-27T21:54:54.828Z,12.37
2023-01-27T21:57:23.520Z,11.13
2023-01-27T21:59:52.118Z,11.23
2023-01-27T22:02:20.505Z,11.60
2023-01-27T22:04:48.843Z,10.93
2023-01-27T22:07:19.113Z,11.43
2023-01-27T22:09:48.057Z,12.27
2023-01-27T22:12:18.950Z,11.83
2023-01-27T22:14:47.580Z,11.47
2023-01-27T22:17:16.773Z,11.50
2023-01-27T22:19:46.001Z,10.00
2023-01-27T22:22:14.795Z,11.63
2023-01-27T22:24:43.312Z,11.23
2023-01-27T22:27:11.842Z,11.50
2023-01-27T22:29:41.924Z,14.17
2023-01-27T22:32:10.489Z,10.60
2023-01-27T22:34:39.105Z,13.87
2023-01-27T22:37:07.562Z,11.10
2023-01-27T22:39:35.881Z,10.57
2023-01-27T22:42:04.579Z,12.63
2023-01-27T22:44:33.073Z,10.20
2023-01-27T22:47:03.473Z,10.50
2023-01-27T22:49:31.960Z,10.93
2023-01-27T22:52:00.671Z,11.10
2023-01-27T22:54:28.941Z,9.73
2023-01-27T22:56:59.009Z,9.43
2023-01-27T22:59:28.921Z,9.63
2023-01-27T23:01:57.372Z,8.70
2023-01-27T23:04:27.913Z,5.90
2023-01-27T23:06:57.384Z,4.73
2023-01-27T23:09:26.101Z,5.80
2023-01-27T23:11:54.724Z,7.47
2023-01-27T23:14:23.177Z,8.47
2023-01-27T23:16:52.943Z,7.60
2023-01-27T23:19:23.207Z,6.83
2023-01-27T23:21:53.144Z,7.33
2023-01-27T23:24:21.949Z,8.07
2023-01-27T23:26:50.554Z,7.00
2023-01-27T23:29:24.609Z,6.80
2023-01-27T23:31:53.986Z,6.23
2023-01-27T23:34:22.469Z,7.57
2023-01-27T23:36:52.203Z,8.77
2023-01-27T23:39:20.589Z,7.40
2023-01-27T23:41:48.846Z,7.00
2023-01-27T23:44:17.216Z,6.67
2023-01-27T23:46:45.428Z,6.50
2023-01-27T23:49:14.162Z,7.03
2023-01-27T23:51:42.505Z,9.67
2023-01-27T23:54:12.152Z,15.20
2023-01-27T23:56:40.397Z,11.53
2023-01-27T23:59:09.145Z,9.83
